Rechercher aéroport 
image banner adimage banner adimage banner ad
image banner ad

NV91 - Fly Sin City #1

Situé à Sandy Valley, United States

ICAO - NV91, IATA -

Données fournies par Airmate  

Information générale

Coordonnées: N35°50'42" W115°32'54"
Élévation : 4331 feet MSL.
 
Voir autres Aéroports à Nevada

Données opérationnelles

Special qualification required
Heure actuelle UTC:
Heure actuelle locale:
Météo à : KHND - Henderson Executive ( 40 km )
METAR: KHND 270556Z AUTO 16008KT 10SM CLR 24/21 A3004 RMK AO2 SLPNO 60051 T02440206 10311 20228 51014
TAF: KHND 270520Z 2706/2806 17009KT P6SM SCT120 FM270900 VRB06KT P6SM SCT120 FM271900 21008KT P6SM SCT120
Voir NOTAMs / SUP AIP / TFR affectant cet aéroport [VIEW]
Fréquences de communication: [VIEW]

Pistes:

Coordonnées de l'aéroport

Adresse: Sandy Valley United States

Vue satellite de NV91